Time;durP1;ratioP1;P1;durP2;ratioP2;P2;SDS_P1;SDS_P2;PMS_P1;PMS_P2;Temp;Humidity;BMP_temperature;BMP_pressure;BME280_temperature;BME280_humidity;BME280_pressure;Samples;Min_cycle;Max_cycle;Signal;HPM_P1;HPM_P2
2021/04/20 00:00:17;;;;;;;12.15;9.63;;;;;;;3.47;93.64;92625.16;1812938;78;21064;-76
2021/04/20 00:02:44;;;;;;;12.05;9.33;;;;;;;3.46;93.72;92618.21;1827723;77;21468;-76
2021/04/20 00:05:15;;;;;;;10.05;7.95;;;;;;;3.47;93.92;92619.78;1871059;76;21099;-76
2021/04/20 00:07:43;;;;;;;8.15;6.80;;;;;;;3.49;93.69;92624.20;1819274;78;21420;-76
2021/04/20 00:10:14;;;;;;;9.43;7.25;;;;;;;3.47;93.27;92625.16;1806369;78;21120;-76
2021/04/20 00:12:41;;;;;;;9.03;7.37;;;;;;;3.35;92.92;92618.90;1795967;79;21105;-75
2021/04/20 00:15:20;;;;;;;9.38;7.60;;;;;;;3.28;93.22;92626.88;1830197;77;21100;-75
2021/04/20 00:17:51;;;;;;;7.50;6.47;;;;;;;3.24;93.36;92621.27;1811881;78;21104;-75
2021/04/20 00:20:19;;;;;;;6.92;5.53;;;;;;;3.22;93.53;92612.22;1779463;80;21215;-75
2021/04/20 00:22:46;;;;;;;7.58;6.25;;;;;;;3.24;93.48;92621.27;1819200;78;21072;-75
2021/04/20 00:25:14;;;;;;;7.15;5.58;;;;;;;3.23;93.42;92610.30;1880136;76;21483;-76
2021/04/20 00:27:41;;;;;;;6.62;4.75;;;;;;;3.24;93.49;92615.91;1864418;76;21119;-76
2021/04/20 00:30:15;;;;;;;6.85;5.47;;;;;;;3.25;93.28;92612.06;1809922;78;21124;-75
2021/04/20 00:32:49;;;;;;;7.03;5.87;;;;;;;3.28;93.40;92608.08;1815288;76;22121;-76
2021/04/20 00:35:17;;;;;;;7.22;5.60;;;;;;;3.29;93.20;92614.22;1872091;76;21061;-75
2021/04/20 00:37:45;;;;;;;7.42;5.60;;;;;;;3.32;93.45;92614.83;1819462;78;21117;-75
2021/04/20 00:40:14;;;;;;;13.22;8.53;;;;;;;3.40;93.54;92607.03;1841955;77;21136;-75
2021/04/20 00:42:53;;;;;;;12.93;7.00;;;;;;;3.46;93.21;92612.29;1836722;76;21135;-77
2021/04/20 00:45:24;;;;;;;10.00;6.83;;;;;;;3.47;92.94;92597.70;1822536;76;21368;-76
2021/04/20 00:47:51;;;;;;;7.95;5.65;;;;;;;3.46;92.59;92605.57;1875952;76;21088;-75
2021/04/20 00:50:24;;;;;;;8.50;6.62;;;;;;;3.43;92.66;92602.27;1852765;76;21555;-76
2021/04/20 00:52:52;;;;;;;8.90;6.15;;;;;;;3.42;92.77;92600.70;1844417;77;21024;-76
2021/04/20 00:55:22;;;;;;;9.65;6.28;;;;;;;3.43;92.85;92598.24;1815051;78;21562;-76
2021/04/20 00:57:50;;;;;;;8.33;5.80;;;;;;;3.43;92.69;92604.19;1839874;78;21324;-76
2021/04/20 01:00:21;;;;;;;8.15;5.72;;;;;;;3.39;92.67;92600.89;1796551;78;21080;-75
2021/04/20 01:02:50;;;;;;;11.00;7.92;;;;;;;3.38;92.76;92601.25;1828341;77;21045;-75
2021/04/20 01:05:23;;;;;;;18.40;11.73;;;;;;;3.35;92.95;92600.09;1873616;76;21069;-75
2021/04/20 01:07:53;;;;;;;12.03;8.73;;;;;;;3.40;93.51;92590.34;1813572;79;21045;-75
2021/04/20 01:10:21;;;;;;;17.10;12.60;;;;;;;3.48;93.67;92592.52;1791576;79;22548;-75
2021/04/20 01:12:48;;;;;;;6.20;5.50;;;;;;;3.53;93.78;92594.86;1766903;77;21134;-76
2021/04/20 01:15:16;;;;;;;8.88;6.47;;;;;;;3.59;93.72;92592.05;1883518;75;21017;-75
2021/04/20 01:17:43;;;;;;;6.33;4.42;;;;;;;3.59;93.10;92593.39;1854929;76;21017;-75
2021/04/20 01:20:12;;;;;;;5.85;4.83;;;;;;;3.51;92.56;92589.67;1873796;76;21096;-75
2021/04/20 01:22:45;;;;;;;6.00;5.08;;;;;;;3.42;92.39;92587.27;1838827;76;21246;-75
2021/04/20 01:25:14;;;;;;;8.20;6.03;;;;;;;3.35;92.35;92585.88;1848657;77;21085;-75
2021/04/20 01:27:42;;;;;;;6.70;4.78;;;;;;;3.28;92.48;92583.89;1854499;76;21187;-75
2021/04/20 01:30:11;;;;;;;5.85;4.85;;;;;;;3.25;92.66;92585.20;1845326;76;21100;-75
2021/04/20 01:32:39;;;;;;;7.12;5.92;;;;;;;3.19;92.65;92579.95;1871927;76;21602;-75
2021/04/20 01:35:09;;;;;;;9.40;7.00;;;;;;;3.17;92.97;92577.64;1819217;78;21140;-75
2021/04/20 01:37:36;;;;;;;8.95;6.40;;;;;;;3.14;93.06;92573.77;1848728;77;21051;-75
2021/04/20 01:40:07;;;;;;;9.35;7.60;;;;;;;3.15;93.36;92573.96;1864892;76;21127;-75
2021/04/20 01:42:35;;;;;;;15.50;10.50;;;;;;;3.21;93.81;92571.73;1850642;77;21471;-75
2021/04/20 01:45:08;;;;;;;18.37;12.50;;;;;;;3.33;93.98;92583.55;1862277;76;21257;-76
2021/04/20 01:47:35;;;;;;;19.00;13.55;;;;;;;3.41;94.03;92573.64;1813167;79;22698;-75
2021/04/20 01:50:06;;;;;;;20.02;13.28;;;;;;;3.46;94.01;92574.66;1841912;78;21482;-76
2021/04/20 01:52:33;;;;;;;21.00;14.45;;;;;;;3.53;94.10;92582.76;1860846;77;21567;-76
2021/04/20 01:55:01;;;;;;;23.80;15.80;;;;;;;3.57;94.13;92578.22;1856901;77;21119;-76
2021/04/20 01:57:28;;;;;;;20.82;14.35;;;;;;;3.62;94.09;92577.09;1839119;77;21168;-76
2021/04/20 01:59:56;;;;;;;21.70;13.80;;;;;;;3.65;93.99;92573.09;1790083;77;21191;-75
2021/04/20 02:02:23;;;;;;;21.73;13.93;;;;;;;3.68;93.83;92577.52;1894742;75;21159;-76
2021/04/20 02:04:51;;;;;;;20.08;13.30;;;;;;;3.68;93.76;92576.17;1864939;75;21104;-76
2021/04/20 02:07:18;;;;;;;22.30;14.03;;;;;;;3.66;93.75;92576.55;1855970;77;21159;-75
2021/04/20 02:09:45;;;;;;;7.53;5.92;;;;;;;3.64;93.78;92577.48;1840751;77;21049;-76
2021/04/20 02:12:14;;;;;;;5.87;4.78;;;;;;;3.64;93.64;92577.48;1836974;75;21793;-76
2021/04/20 02:14:41;;;;;;;7.58;5.70;;;;;;;3.62;93.26;92573.06;1893864;75;21138;-76
2021/04/20 02:17:08;;;;;;;5.62;4.97;;;;;;;3.60;92.84;92573.99;1861804;75;21353;-75
2021/04/20 02:19:36;;;;;;;7.97;6.22;;;;;;;3.54;92.52;92580.30;1800937;78;21285;-76
2021/04/20 02:22:03;;;;;;;15.90;10.00;;;;;;;3.46;92.40;92573.31;1777265;80;21170;-76
2021/04/20 02:24:33;;;;;;;14.33;9.68;;;;;;;3.40;92.67;92572.09;1829895;78;22017;-76
2021/04/20 02:27:00;;;;;;;11.18;8.03;;;;;;;3.35;93.09;92577.82;1818648;75;21101;-75
2021/04/20 02:29:28;;;;;;;11.90;7.12;;;;;;;3.36;93.35;92571.30;1904407;75;21128;-76
2021/04/20 02:31:55;;;;;;;11.35;7.87;;;;;;;3.35;93.26;92570.53;1825627;75;21566;-76
2021/04/20 02:34:23;;;;;;;16.00;10.05;;;;;;;3.35;93.40;92566.50;1758960;79;21516;-76
2021/04/20 02:36:51;;;;;;;22.42;14.55;;;;;;;3.35;93.44;92564.38;1800064;79;21856;-76
2021/04/20 02:39:20;;;;;;;22.45;15.68;;;;;;;3.35;93.70;92565.16;1803197;77;21076;-76
2021/04/20 02:41:49;;;;;;;25.92;15.93;;;;;;;3.38;94.03;92566.31;1837183;78;21093;-76
2021/04/20 02:44:17;;;;;;;27.00;16.55;;;;;;;3.40;94.25;92565.38;1847444;77;21149;-76
2021/04/20 02:46:44;;;;;;;23.32;14.15;;;;;;;3.43;94.47;92572.70;1832685;76;21040;-74
2021/04/20 02:49:12;;;;;;;23.92;15.48;;;;;;;3.45;94.53;92566.95;1827190;78;21528;-77
2021/04/20 02:51:40;;;;;;;26.00;16.42;;;;;;;3.45;94.49;92566.38;1797660;77;21111;-77
2021/04/20 02:54:08;;;;;;;25.32;15.50;;;;;;;3.48;94.73;92568.33;1855096;77;21181;-76
2021/04/20 02:56:36;;;;;;;23.70;15.05;;;;;;;3.54;94.83;92560.13;1813117;79;21064;-77
2021/04/20 02:59:09;;;;;;;24.98;15.15;;;;;;;3.56;94.66;92560.52;1867432;75;21053;-76
2021/04/20 03:01:41;;;;;;;20.88;15.13;;;;;;;3.60;94.59;92568.62;1785363;76;21344;-77
2021/04/20 03:04:13;;;;;;;22.00;14.80;;;;;;;3.60;94.44;92563.23;1854437;75;21147;-76
2021/04/20 03:06:44;;;;;;;20.05;12.58;;;;;;;3.60;94.35;92561.89;1864570;76;21566;-76
2021/04/20 03:09:14;;;;;;;14.68;10.38;;;;;;;3.61;94.32;92564.23;1825858;76;21042;-76
2021/04/20 03:11:55;;;;;;;18.87;13.58;;;;;;;3.58;94.09;92565.55;1883168;75;21111;-76
2021/04/20 03:14:26;;;;;;;26.48;15.40;;;;;;;3.56;94.09;92560.52;1854510;76;22089;-75
2021/04/20 03:16:54;;;;;;;14.58;10.45;;;;;;;3.58;94.16;92564.20;1863870;76;21044;-76
2021/04/20 03:19:22;;;;;;;14.23;9.60;;;;;;;3.59;94.14;92563.81;1853031;76;21116;-76
2021/04/20 03:21:50;;;;;;;9.25;6.72;;;;;;;3.61;93.83;92567.47;1812632;77;21113;-76
2021/04/20 03:24:35;;;;;;;7.37;5.70;;;;;;;3.61;93.74;92569.61;1783510;77;21036;-76
2021/04/20 03:27:05;;;;;;;7.03;5.95;;;;;;;3.63;93.42;92571.34;1886086;76;21804;-76
2021/04/20 03:29:32;;;;;;;15.48;10.35;;;;;;;3.59;92.88;92570.53;1768793;77;21163;-77
2021/04/20 03:32:00;;;;;;;16.25;11.18;;;;;;;3.54;92.92;92564.74;1872801;76;21568;-76
2021/04/20 03:34:37;;;;;;;15.53;10.23;;;;;;;3.53;93.26;92566.63;1868429;76;21453;-76
2021/04/20 03:37:10;;;;;;;13.35;8.30;;;;;;;3.60;93.25;92572.65;1838860;77;21043;-76
2021/04/20 03:39:40;;;;;;;9.95;7.45;;;;;;;3.64;93.11;92572.88;1794404;78;21491;-76
2021/04/20 03:44:48;;;;;;;14.63;8.68;;;;;;;3.64;92.35;92575.56;1889863;76;21521;-77
2021/04/20 03:47:37;;;;;;;13.62;8.88;;;;;;;3.57;92.33;92572.84;1856478;76;21068;-77
2021/04/20 03:50:10;;;;;;;9.53;6.97;;;;;;;3.56;92.34;92569.93;1801959;78;21057;-76
2021/04/20 03:52:45;;;;;;;9.68;7.17;;;;;;;3.47;92.06;92580.80;1838682;76;21205;-76
2021/04/20 03:55:14;;;;;;;11.80;7.92;;;;;;;3.34;92.20;92568.19;1853108;76;21467;-76
2021/04/20 03:57:44;;;;;;;14.47;9.15;;;;;;;3.24;92.56;92578.29;1823736;77;21269;-77
2021/04/20 04:00:14;;;;;;;18.75;11.40;;;;;;;3.19;92.93;92579.95;1882145;76;21163;-77
2021/04/20 04:02:43;;;;;;;17.90;11.22;;;;;;;3.14;93.25;92573.00;1812698;75;21215;-77
2021/04/20 04:05:17;;;;;;;18.42;12.47;;;;;;;3.12;93.58;92580.09;1801402;78;21350;-77
2021/04/20 04:07:48;;;;;;;18.60;11.40;;;;;;;3.12;93.82;92577.95;1832169;76;21132;-76
2021/04/20 04:10:15;;;;;;;21.42;12.95;;;;;;;3.12;94.01;92578.75;1845002;76;21053;-76
2021/04/20 04:12:43;;;;;;;22.80;14.07;;;;;;;3.14;94.19;92583.17;1704997;80;21383;-77
2021/04/20 04:15:11;;;;;;;21.00;13.10;;;;;;;3.18;94.38;92583.20;1779943;80;21558;-75
2021/04/20 04:17:41;;;;;;;13.10;9.35;;;;;;;3.22;94.47;92580.56;1787304;78;21599;-76
2021/04/20 04:20:12;;;;;;;8.83;6.40;;;;;;;3.30;94.62;92591.00;1820434;78;21123;-77
2021/04/20 04:23:04;;;;;;;12.63;6.92;;;;;;;3.32;94.05;92593.33;1843325;76;21085;-77
2021/04/20 04:25:33;;;;;;;13.18;8.65;;;;;;;3.26;93.70;92585.39;1855446;76;21532;-77
2021/04/20 04:28:02;;;;;;;10.65;8.00;;;;;;;3.26;94.01;92582.70;1814327;78;21164;-77
2021/04/20 04:30:29;;;;;;;12.10;8.40;;;;;;;3.31;94.08;92580.47;1802793;78;21365;-76
2021/04/20 04:33:00;;;;;;;13.98;7.42;;;;;;;3.38;94.14;92587.81;1853285;77;21072;-77
2021/04/20 04:35:27;;;;;;;17.80;12.82;;;;;;;3.41;93.93;92579.02;1866686;76;21068;-77
2021/04/20 04:37:55;;;;;;;11.10;6.60;;;;;;;3.45;93.93;92584.42;1851087;76;21049;-76
2021/04/20 04:40:22;;;;;;;7.67;6.00;;;;;;;3.49;93.97;92584.65;1811265;78;21145;-77
2021/04/20 04:42:49;;;;;;;5.87;4.92;;;;;;;3.53;93.88;92582.76;1787282;77;21746;-76
2021/04/20 04:45:17;;;;;;;8.15;4.92;;;;;;;3.52;93.28;92583.14;1905427;75;21037;-76
2021/04/20 04:47:44;;;;;;;8.45;5.00;;;;;;;3.49;93.37;92587.91;1822174;74;21521;-77
2021/04/20 04:50:13;;;;;;;4.47;4.08;;;;;;;3.48;93.12;92585.80;1802159;79;21080;-77
2021/04/20 04:52:43;;;;;;;4.87;4.37;;;;;;;3.46;93.16;92582.72;1805052;79;21102;-76
2021/04/20 04:55:12;;;;;;;5.50;4.90;;;;;;;3.46;93.04;92586.75;1821141;76;21291;-76
2021/04/20 04:57:39;;;;;;;6.70;5.55;;;;;;;3.42;92.81;92587.27;1872846;76;21104;-77
2021/04/20 05:00:08;;;;;;;7.33;5.47;;;;;;;3.39;93.17;92588.80;1795249;78;21037;-77
2021/04/20 05:02:36;;;;;;;8.00;5.60;;;;;;;3.46;93.41;92583.27;1814309;78;21455;-76
2021/04/20 05:05:06;;;;;;;8.90;7.25;;;;;;;3.52;93.31;92580.45;1846464;77;21478;-76
2021/04/20 05:07:33;;;;;;;7.22;6.35;;;;;;;3.58;93.15;92586.47;1878354;75;22026;-76
2021/04/20 05:10:07;;;;;;;7.00;5.62;;;;;;;3.63;92.93;92585.35;1850526;77;21840;-76
2021/04/20 05:12:34;;;;;;;6.15;4.60;;;;;;;3.70;92.95;92584.65;1801740;79;21510;-76
2021/04/20 05:15:08;;;;;;;7.90;6.55;;;;;;;3.74;93.01;92582.76;1853481;76;21139;-76
2021/04/20 05:17:37;;;;;;;9.40;6.90;;;;;;;3.81;92.97;92586.85;1865252;76;21555;-76
2021/04/20 05:20:06;;;;;;;9.25;7.15;;;;;;;3.82;92.37;92583.78;1852413;76;21492;-76
2021/04/20 05:22:34;;;;;;;5.75;4.80;;;;;;;3.78;92.41;92582.98;1851264;77;21485;-76
2021/04/20 05:25:10;;;;;;;4.92;4.42;;;;;;;3.75;92.46;92580.27;1869299;76;21132;-76
2021/04/20 05:27:38;;;;;;;7.62;6.25;;;;;;;3.74;92.51;92578.72;1835801;78;21744;-76
2021/04/20 05:30:07;;;;;;;5.78;5.20;;;;;;;3.76;92.92;92587.17;1797611;78;21073;-76
2021/04/20 05:32:40;;;;;;;6.87;6.03;;;;;;;3.85;93.13;92585.73;1852709;76;21127;-76
2021/04/20 05:35:11;;;;;;;7.62;6.55;;;;;;;3.95;92.89;92588.86;1852113;76;21120;-76
2021/04/20 05:37:42;;;;;;;8.08;6.12;;;;;;;4.01;92.79;92588.14;1811758;78;21124;-76
2021/04/20 05:40:14;;;;;;;8.75;6.80;;;;;;;4.10;92.40;92584.58;1804533;76;21148;-76
2021/04/20 05:42:42;;;;;;;6.22;5.30;;;;;;;4.16;92.16;92578.83;1874155;76;21096;-74
2021/04/20 05:45:11;;;;;;;8.25;6.70;;;;;;;4.23;92.02;92585.03;1839077;76;21346;-76
2021/04/20 05:47:42;;;;;;;15.30;9.85;;;;;;;4.27;91.92;92583.13;1848540;77;21096;-75
2021/04/20 05:50:14;;;;;;;14.80;10.60;;;;;;;4.35;91.85;92583.95;1853597;76;21484;-75
2021/04/20 05:52:42;;;;;;;14.68;10.70;;;;;;;4.42;91.85;92585.91;1824110;78;21594;-75
2021/04/20 05:55:11;;;;;;;18.67;11.55;;;;;;;4.46;91.95;92578.63;1803946;78;21151;-74
2021/04/20 05:57:38;;;;;;;15.20;10.38;;;;;;;4.50;91.88;92582.11;1819051;78;21326;-75
2021/04/20 06:00:07;;;;;;;13.90;9.73;;;;;;;4.50;91.74;92588.26;1852286;76;21072;-75
2021/04/20 06:02:42;;;;;;;11.85;9.13;;;;;;;4.59;91.49;92587.36;1790151;78;21146;-75
2021/04/20 06:05:21;;;;;;;19.75;12.40;;;;;;;4.59;91.49;92587.36;1824406;78;21108;-75
2021/04/20 06:07:52;;;;;;;23.85;15.23;;;;;;;4.66;91.31;92583.91;1801508;77;21190;-75
2021/04/20 06:10:21;;;;;;;17.17;11.35;;;;;;;4.70;91.17;92585.27;1896212;74;22199;-75
2021/04/20 06:12:49;;;;;;;16.42;11.80;;;;;;;4.70;90.89;92587.97;1820199;77;21105;-74
2021/04/20 06:15:21;;;;;;;21.62;12.98;;;;;;;4.69;90.77;92591.23;1836672;77;21167;-74
2021/04/20 06:17:52;;;;;;;22.37;13.00;;;;;;;4.73;90.84;92589.33;1809762;78;21119;-76
2021/04/20 06:20:22;;;;;;;18.75;12.20;;;;;;;4.79;91.00;92586.48;1859764;77;21098;-75
2021/04/20 06:22:51;;;;;;;21.45;12.47;;;;;;;4.87;90.93;92585.94;1858917;77;21360;-75
2021/04/20 06:25:19;;;;;;;19.15;12.68;;;;;;;5.04;90.20;92587.94;1850785;77;21186;-75
2021/04/20 06:27:48;;;;;;;16.93;10.75;;;;;;;5.04;90.20;92587.94;1824521;77;21496;-75
2021/04/20 06:30:17;;;;;;;15.95;11.25;;;;;;;5.07;89.57;92589.84;1886286;75;21035;-74
2021/04/20 06:32:44;;;;;;;17.20;11.55;;;;;;;5.10;88.96;92581.59;1775840;79;21087;-75
2021/04/20 06:35:18;;;;;;;18.52;12.00;;;;;;;5.10;88.96;92581.59;1850903;75;21127;-75
2021/04/20 06:37:48;;;;;;;15.40;10.43;;;;;;;5.13;89.66;92567.94;1881799;75;21061;-75
2021/04/20 06:40:36;;;;;;;15.43;10.65;;;;;;;5.27;89.21;92580.88;1796303;76;21120;-75
2021/04/20 06:43:07;;;;;;;16.12;11.18;;;;;;;5.27;89.21;92580.88;1876237;76;21128;-75
2021/04/20 06:45:46;;;;;;;13.60;9.15;;;;;;;5.36;88.23;92578.58;1814676;75;21144;-75
2021/04/20 06:48:43;;;;;;;10.32;7.87;;;;;;;5.36;88.23;92578.58;1801349;78;22297;-75
2021/04/20 06:51:20;;;;;;;12.53;8.65;;;;;;;5.40;87.54;92576.47;1799896;79;21203;-74
2021/04/20 06:53:54;;;;;;;9.85;8.00;;;;;;;5.41;86.91;92576.07;1841822;76;21155;-74
2021/04/20 06:56:40;;;;;;;13.03;9.30;;;;;;;5.41;86.57;92580.11;1828667;76;21104;-74
2021/04/20 06:59:48;;;;;;;12.58;8.50;;;;;;;5.40;86.91;92585.32;1778835;80;21670;-74
2021/04/20 07:03:00;;;;;;;11.90;9.85;;;;;;;5.40;86.88;92583.97;1811451;76;21818;-73
2021/04/20 07:05:42;;;;;;;13.20;9.48;;;;;;;5.41;86.59;92582.81;1807627;77;21085;-74
2021/04/20 07:08:41;;;;;;;12.88;9.38;;;;;;;5.45;86.96;92571.45;1813278;78;21504;-74
2021/04/20 07:11:13;;;;;;;12.30;9.65;;;;;;;5.59;87.30;92575.52;1834407;78;21156;-76
2021/04/20 07:13:47;;;;;;;13.22;9.68;;;;;;;5.90;88.07;92573.22;1803478;79;21132;-76
2021/04/20 07:16:23;;;;;;;13.53;9.10;;;;;;;6.20;87.24;92576.14;1780448;80;21382;-76
2021/04/20 07:19:25;;;;;;;12.60;9.38;;;;;;;6.37;85.42;92578.64;1881062;76;21102;-76
2021/04/20 07:22:25;;;;;;;11.97;9.38;;;;;;;6.42;84.38;92573.59;1803810;78;21065;-76
2021/04/20 07:25:14;;;;;;;8.85;7.25;;;;;;;6.47;83.32;92565.67;1882511;76;21135;-75
2021/04/20 07:28:11;;;;;;;10.85;8.45;;;;;;;6.52;82.06;92565.29;1853308;76;21155;-76
2021/04/20 07:31:10;;;;;;;11.60;8.68;;;;;;;6.62;82.23;92568.55;1843397;77;21800;-75
2021/04/20 07:34:15;;;;;;;10.88;9.00;;;;;;;6.89;83.27;92567.49;1816211;77;21133;-76
2021/04/20 07:37:32;;;;;;;10.43;8.00;;;;;;;7.36;82.53;92567.27;1876951;76;21120;-75
2021/04/20 07:40:23;;;;;;;8.13;6.78;;;;;;;7.81;81.09;92564.08;1813462;79;21175;-76
2021/04/20 07:42:58;;;;;;;9.40;7.30;;;;;;;8.11;77.55;92563.45;1858465;75;21155;-76
2021/04/20 07:45:51;;;;;;;10.70;7.35;;;;;;;8.22;75.83;92560.08;1842849;76;21417;-76
2021/04/20 07:48:43;;;;;;;8.63;7.25;;;;;;;8.21;75.25;92557.19;1859559;76;21724;-76
2021/04/20 07:51:28;;;;;;;10.18;7.67;;;;;;;8.12;74.39;92558.81;1848654;77;21124;-75
2021/04/20 07:54:07;;;;;;;11.75;8.33;;;;;;;8.01;74.00;92556.19;1828736;76;21748;-76
2021/04/20 07:56:44;;;;;;;9.98;7.83;;;;;;;7.90;74.70;92558.20;1835602;76;21132;-76
2021/04/20 07:59:19;;;;;;;9.85;8.03;;;;;;;7.81;74.31;92554.61;1864344;76;21178;-75
2021/04/20 08:01:55;;;;;;;9.70;7.83;;;;;;;7.68;74.17;92565.14;1832927;78;21714;-78
2021/04/20 08:04:40;;;;;;;11.90;8.78;;;;;;;7.47;73.83;92551.16;1803021;79;21213;-76
2021/04/20 08:07:13;;;;;;;11.55;9.35;;;;;;;7.26;74.06;92558.06;1827505;78;21191;-76
2021/04/20 08:09:42;;;;;;;11.28;9.23;;;;;;;6.98;74.40;92561.66;1866255;76;21574;-75
2021/04/20 08:12:26;;;;;;;12.93;9.08;;;;;;;6.74;76.06;92559.25;1836717;76;21381;-76
2021/04/20 08:15:08;;;;;;;14.28;9.98;;;;;;;6.56;77.49;92559.30;1822991;76;21136;-76
2021/04/20 08:17:50;;;;;;;15.35;10.75;;;;;;;6.42;77.63;92563.38;1870012;76;21056;-77
2021/04/20 08:20:21;;;;;;;14.60;11.08;;;;;;;6.32;78.23;92563.02;1850764;77;21108;-76
2021/04/20 08:22:50;;;;;;;13.93;11.38;;;;;;;6.36;80.19;92561.66;1793040;77;21123;-74
2021/04/20 08:25:40;;;;;;;13.40;10.03;;;;;;;6.60;80.81;92553.89;1813083;77;22223;-74
2021/04/20 08:28:35;;;;;;;12.98;10.30;;;;;;;6.92;81.08;92557.25;1880194;76;23115;-74
2021/04/20 08:31:31;;;;;;;11.63;9.18;;;;;;;7.25;80.03;92557.27;1854776;76;21595;-74
2021/04/20 08:34:24;;;;;;;14.13;10.82;;;;;;;7.60;79.30;92564.22;1816296;77;21179;-74
2021/04/20 08:37:08;;;;;;;12.68;10.38;;;;;;;7.88;77.57;92555.91;1834760;77;21037;-74
2021/04/20 08:40:03;;;;;;;12.65;9.18;;;;;;;8.19;77.39;92557.39;1852368;77;21298;-76
2021/04/20 08:42:42;;;;;;;10.63;8.78;;;;;;;8.44;75.25;92561.27;1801419;79;21132;-76
2021/04/20 08:45:51;;;;;;;8.48;7.10;;;;;;;8.44;71.29;92566.09;1814294;77;21102;-76
2021/04/20 08:48:50;;;;;;;6.60;5.90;;;;;;;8.01;68.96;92589.47;1874329;75;21158;-75
2021/04/20 08:51:24;;;;;;;7.53;5.72;;;;;;;7.42;70.04;92596.80;1806752;78;21160;-75
2021/04/20 08:54:27;;;;;;;7.05;4.90;;;;;;;6.92;70.64;92608.61;1812707;78;21155;-75
2021/04/20 08:57:31;;;;;;;7.58;5.35;;;;;;;6.44;70.48;92602.34;1809886;78;21206;-75
2021/04/20 09:00:10;;;;;;;5.50;4.20;;;;;;;6.09;73.11;92615.28;1808719;78;21179;-75
2021/04/20 09:03:13;;;;;;;6.62;4.37;;;;;;;5.91;73.74;92616.61;1824864;77;21140;-75
2021/04/20 09:05:55;;;;;;;6.55;5.12;;;;;;;5.74;74.39;92614.08;1863130;76;21176;-75
2021/04/20 09:08:37;;;;;;;5.55;4.75;;;;;;;5.63;75.64;92609.83;1815057;78;21105;-75
2021/04/20 09:11:10;;;;;;;5.80;5.03;;;;;;;5.50;76.56;92606.73;1782343;80;21132;-74
2021/04/20 09:13:59;;;;;;;4.62;4.12;;;;;;;5.45;77.42;92605.16;1904012;75;21021;-75
2021/04/20 09:16:53;;;;;;;4.92;4.42;;;;;;;5.45;78.01;92602.47;1812722;75;21231;-75
2021/04/20 09:19:45;;;;;;;7.15;5.08;;;;;;;5.47;78.57;92602.09;1803959;79;21080;-75
2021/04/20 09:22:26;;;;;;;5.05;4.45;;;;;;;5.51;78.54;92605.57;1800982;78;21631;-75
2021/04/20 09:25:05;;;;;;;9.40;6.20;;;;;;;5.58;79.03;92600.96;1852377;76;21159;-75
2021/04/20 09:28:01;;;;;;;4.72;3.70;;;;;;;5.66;79.32;92601.74;1849880;76;21420;-75
2021/04/20 09:30:48;;;;;;;3.83;3.42;;;;;;;5.70;77.92;92601.16;1816657;78;21159;-75
2021/04/20 09:33:33;;;;;;;4.05;3.40;;;;;;;5.71;76.38;92599.23;1832380;76;21427;-75
2021/04/20 09:36:00;;;;;;;3.92;3.52;;;;;;;5.65;76.32;92593.47;1851139;76;21718;-74
2021/04/20 09:38:28;;;;;;;3.17;2.87;;;;;;;5.59;76.12;92584.97;1783558;79;21717;-75
2021/04/20 09:40:55;;;;;;;4.65;3.50;;;;;;;5.61;75.44;92585.95;1818127;79;21148;-75
2021/04/20 09:43:29;;;;;;;3.87;3.42;;;;;;;5.66;75.87;92584.20;1845887;77;21144;-76
2021/04/20 09:46:10;;;;;;;3.70;3.30;;;;;;;5.77;75.38;92576.89;1859359;76;21141;-75
2021/04/20 09:49:00;;;;;;;8.88;6.87;;;;;;;5.92;74.48;92576.35;1837550;76;21128;-77
2021/04/20 09:51:32;;;;;;;4.20;3.80;;;;;;;6.14;73.57;92570.95;1823672;77;21046;-75
2021/04/20 09:54:13;;;;;;;6.45;3.52;;;;;;;6.39;73.58;92570.31;1866847;76;21226;-75
2021/04/20 09:56:48;;;;;;;3.62;3.33;;;;;;;6.64;72.79;92567.56;1820594;78;21106;-74
2021/04/20 09:59:23;;;;;;;3.80;3.40;;;;;;;6.82;70.87;92571.57;1808947;78;37404;-74
2021/04/20 10:02:11;;;;;;;5.35;4.83;;;;;;;6.92;73.25;92568.63;1808526;79;21803;-74
2021/04/20 10:05:11;;;;;;;4.55;4.00;;;;;;;7.13;72.80;92571.83;1836076;77;21117;-75
2021/04/20 10:08:05;;;;;;;3.83;3.52;;;;;;;7.35;71.17;92562.45;1872218;76;21180;-75
2021/04/20 10:10:57;;;;;;;3.72;3.42;;;;;;;7.64;72.37;92559.58;1823489;76;21124;-75
2021/04/20 10:14:08;;;;;;;4.58;3.70;;;;;;;7.94;69.65;92563.80;1811386;78;21053;-75
2021/04/20 10:16:43;;;;;;;5.17;3.95;;;;;;;8.11;68.94;92562.10;1840727;75;21378;-75
2021/04/20 10:19:25;;;;;;;4.87;4.12;;;;;;;8.28;67.37;92551.71;1836129;76;21171;-75
2021/04/20 10:22:18;;;;;;;4.45;4.00;;;;;;;8.42;66.95;92552.17;1821141;76;21142;-75
2021/04/20 10:25:24;;;;;;;4.95;4.55;;;;;;;8.48;67.69;92553.28;1846394;76;21123;-75
2021/04/20 10:28:00;;;;;;;5.37;4.72;;;;;;;8.63;67.62;92546.37;1835116;76;21208;-76
2021/04/20 10:30:32;;;;;;;10.75;6.50;;;;;;;8.89;67.32;92555.17;1819198;76;22058;-75
2021/04/20 10:33:00;;;;;;;6.95;6.22;;;;;;;9.06;67.40;92552.06;1843649;77;21223;-75
2021/04/20 10:35:37;;;;;;;8.13;6.08;;;;;;;9.16;67.97;92553.87;1804252;79;21144;-75
2021/04/20 10:38:14;;;;;;;8.00;6.35;;;;;;;9.21;67.84;92553.45;1871092;76;21037;-77
2021/04/20 10:40:44;;;;;;;8.93;6.83;;;;;;;9.07;64.98;92564.47;1808391;77;21662;-75
2021/04/20 10:43:16;;;;;;;7.60;6.42;;;;;;;8.52;64.16;92572.21;1798084;78;21175;-76
2021/04/20 10:45:44;;;;;;;5.83;5.33;;;;;;;8.02;66.47;92580.75;1818081;78;21526;-76
2021/04/20 10:48:15;;;;;;;6.53;5.62;;;;;;;7.72;67.58;92578.06;1830383;75;21043;-75
2021/04/20 10:50:48;;;;;;;5.72;5.12;;;;;;;7.49;69.18;92582.66;1890585;75;21629;-78
2021/04/20 10:53:34;;;;;;;6.42;5.83;;;;;;;7.34;69.70;92580.43;1849904;77;21096;-76
2021/04/20 10:56:05;;;;;;;4.97;4.53;;;;;;;7.13;71.17;92583.41;1875921;76;21281;-77
2021/04/20 10:58:33;;;;;;;4.87;4.37;;;;;;;6.98;71.39;92587.34;1844036;76;21178;-76
2021/04/20 11:01:00;;;;;;;6.45;5.03;;;;;;;6.84;70.99;92594.14;1817439;78;21187;-76
2021/04/20 11:03:35;;;;;;;5.10;4.70;;;;;;;6.70;70.72;92590.33;1803914;79;21173;-76
2021/04/20 11:06:02;;;;;;;4.85;4.35;;;;;;;6.60;72.55;92588.42;1811501;76;21185;-76
2021/04/20 11:11:20;;;;;;;5.95;5.33;;;;;;;6.57;72.31;92590.54;1836348;78;21159;-75
2021/04/20 11:13:49;;;;;;;5.33;4.83;;;;;;;6.58;73.66;92592.08;1803378;78;21167;-76
2021/04/20 11:16:27;;;;;;;5.40;4.87;;;;;;;6.75;74.78;92594.55;1813369;78;21172;-76
2021/04/20 11:19:08;;;;;;;6.17;5.58;;;;;;;7.05;76.29;92590.02;1808385;78;21172;-76
2021/04/20 11:21:39;;;;;;;5.50;5.03;;;;;;;7.46;75.83;92590.79;1819599;76;21364;-76
2021/04/20 11:24:20;;;;;;;5.47;4.97;;;;;;;7.82;75.02;92583.79;1872680;76;21677;-77
2021/04/20 11:26:53;;;;;;;5.58;5.08;;;;;;;8.05;73.14;92581.31;1799752;79;21146;-76
2021/04/20 11:29:32;;;;;;;5.28;4.70;;;;;;;8.17;72.16;92578.11;1843774;77;21109;-76
2021/04/20 11:31:59;;;;;;;5.05;4.55;;;;;;;8.27;69.85;92574.55;1820113;76;21158;-76
2021/04/20 11:34:31;;;;;;;4.70;4.30;;;;;;;8.28;68.76;92572.02;1849384;76;21638;-76
2021/04/20 11:37:04;;;;;;;4.40;4.00;;;;;;;8.35;69.67;92559.56;1835670;77;21163;-75
2021/04/20 11:39:44;;;;;;;4.75;3.95;;;;;;;8.53;69.47;92562.91;1836900;78;21143;-76
2021/04/20 11:42:29;;;;;;;4.60;4.20;;;;;;;8.74;67.36;92561.92;1820322;78;21174;-76
2021/04/20 11:44:59;;;;;;;5.03;4.17;;;;;;;8.98;67.00;92554.68;1838638;77;21164;-77
2021/04/20 11:47:26;;;;;;;4.70;4.30;;;;;;;9.21;64.66;92562.14;1876115;76;22307;-76
2021/04/20 11:50:10;;;;;;;4.25;3.87;;;;;;;9.34;63.46;92552.89;1844882;76;21167;-76
2021/04/20 11:52:38;;;;;;;4.85;4.00;;;;;;;9.49;63.06;92550.17;1854427;76;21218;-79
2021/04/20 11:55:12;;;;;;;5.00;4.53;;;;;;;9.47;56.84;92553.86;1871671;75;21151;-76
2021/04/20 11:57:39;;;;;;;5.47;4.58;;;;;;;9.32;58.04;92547.86;1855598;77;21139;-75
2021/04/20 12:00:08;;;;;;;4.87;4.45;;;;;;;9.23;59.42;92554.38;1889659;75;21644;-75
2021/04/20 12:02:36;;;;;;;5.00;4.50;;;;;;;9.28;61.09;92548.49;1821481;78;21055;-76
2021/04/20 12:05:12;;;;;;;7.30;4.90;;;;;;;9.32;59.11;92549.22;1825596;77;21550;-76
2021/04/20 12:07:40;;;;;;;4.50;4.10;;;;;;;9.32;59.75;92552.52;1807240;78;21181;-74
2021/04/20 12:10:10;;;;;;;5.33;4.83;;;;;;;9.25;59.68;92541.16;1804947;78;21199;-76
2021/04/20 12:12:37;;;;;;;5.25;4.50;;;;;;;9.19;61.20;92541.45;1726909;79;21377;-75
2021/04/20 12:15:07;;;;;;;8.15;5.42;;;;;;;9.20;61.07;92541.63;1817157;79;21130;-76
2021/04/20 12:17:50;;;;;;;5.62;4.80;;;;;;;9.22;62.33;92544.72;1807569;78;21111;-76